Flight Track Log - Related Links

Times and Time Zones

All times are in EST time to prevent confusion due to time zone crossing. See the AAL1459 flight status page for this flight to view local times or setup timezone preferences in your user account.


Time Position Orientation Groundspeed Altitude Reporting Facility
EST Latitude Longitude Course Direction KTS MPH feet Rate Location/Type
Mon 07:00:24 PM 41.9700 -87.9410 270° West 174 200 1,200  Level FlightAware ADS-B
Mon 07:00:52 PM 41.9790 -87.9690 293° West 182 209 2,500 2,556 Climbing FlightAware ADS-B
Mon 07:01:18 PM 41.9890 -87.9960 296° West 199 229 3,500 2,222 Climbing FlightAware ADS-B
Mon 07:01:46 PM 42.0020 -88.0320 296° West 235 270 4,500 2,632 Climbing FlightAware ADS-B
Mon 07:02:15 PM 42.0130 -88.0730 290° West 247 284 6,000 3,263 Climbing FlightAware ADS-B
Mon 07:02:43 PM 42.0220 -88.1160 286° West 254 292 7,600 3,491 Climbing FlightAware ADS-B
Mon 07:03:10 PM 42.0300 -88.1570 285° West 257 296 9,200 3,313 Climbing FlightAware ADS-B
Mon 07:03:50 PM 42.0430 -88.2190 286° West 262 302 11,300 2,609 Climbing FlightAware ADS-B
Mon 07:04:42 PM 42.0610 -88.3040 286° West 301 346 13,200 1,800 Climbing FlightAware ADS-B
Mon 07:05:10 PM 42.0720 -88.3590 285° West 338 389 13,700 2,276 Climbing FlightAware ADS-B
Mon 07:06:09 PM 42.0970 -88.4810 285° West 351 404 16,500 2,945 Climbing FlightAware ADS-B
Mon 07:07:00 PM 42.1190 -88.5900 285° West 352 405 19,100 2,629 Climbing FlightAware ADS-B
Mon 07:07:54 PM 42.1430 -88.7060 286° West 364 419 21,100 2,020 Climbing FlightAware ADS-B
Mon 07:08:41 PM 42.1610 -88.8090 283° West 376 433 22,500 1,904 Climbing FlightAware ADS-B
Mon 07:09:38 PM 42.1600 -88.9460 269° West 384 442 24,400 2,000 Climbing FlightAware ADS-B
Mon 07:10:20 PM 42.1570 -89.0460 268° West 387 445 25,800 1,926 Climbing FlightAware ADS-B
Mon 07:10:59 PM 42.1550 -89.1400 268° West 390 449 27,000 1,747 Climbing FlightAware ADS-B
Mon 07:11:39 PM 42.1520 -89.2340 268° West 393 452 28,100 1,586 Climbing FlightAware ADS-B
Mon 07:12:26 PM 42.1490 -89.3490 268° West 396 456 29,300 1,714 Climbing FlightAware ADS-B
Mon 07:12:56 PM 42.1470 -89.4190 268° West 391 450 30,300 2,189 Climbing FlightAware ADS-B
Mon 07:13:40 PM 42.1440 -89.5280 268° West 376 433 32,000 2,094 Climbing FlightAware ADS-B
Mon 07:14:42 PM 42.1400 -89.6700 268° West 354 407 34,000 1,132 Climbing FlightAware ADS-B
Mon 07:15:26 PM 42.1370 -89.7680 268° West 354 407 34,000  Level FlightAware ADS-B
Mon 07:15:54 PM 42.1350 -89.8270 267° West 354 407 34,000  Level FlightAware ADS-B
Mon 07:16:43 PM 42.1310 -89.9340 267° West 355 409 34,000  Level FlightAware ADS-B
Mon 07:17:32 PM 42.1330 -90.0450 271° West 363 418 34,000  Level FlightAware ADS-B
Mon 07:18:02 PM 42.1450 -90.1100 284° West 369 425 34,000  Level FlightAware ADS-B
Mon 07:18:52 PM 42.1680 -90.2200 286° West 367 422 34,000  Level FlightAware ADS-B
Mon 07:19:16 PM 42.1780 -90.2710 285° West 366 421 34,000  Level FlightAware ADS-B
Mon 07:20:08 PM 42.2020 -90.3890 285° West 365 420 34,000  Level FlightAware ADS-B
Mon 07:21:02 PM 42.2260 -90.5070 285° West 363 418 34,000  Level FlightAware ADS-B
Mon 07:21:50 PM 42.2460 -90.6100 285° West 362 417 34,000  Level FlightAware ADS-B
Mon 07:22:30 PM 42.2640 -90.6980 285° West 362 417 34,000  Level FlightAware ADS-B
Mon 07:23:30 PM 42.2880 -90.8210 285° West 362 417 34,000  Level FlightAware ADS-B
Mon 07:24:14 PM 42.3080 -90.9210 285° West 363 418 34,000  Level FlightAware ADS-B
Mon 07:25:02 PM 42.3290 -91.0280 285° West 367 422 34,000  Level FlightAware ADS-B
Mon 07:25:53 PM 42.3510 -91.1440 284° West 368 423 34,000  Level FlightAware ADS-B
Mon 07:26:40 PM 42.3717 -91.2492 285° West 371 427 34,000  Level FlightAware ADS-B
Mon 07:27:19 PM 42.3880 -91.3320 285° West 370 426 34,000  Level FlightAware ADS-B
Mon 07:28:04 PM 42.4070 -91.4370 284° West 373 429 34,000  Level FlightAware ADS-B
Mon 07:28:45 PM 42.4250 -91.5304 285° West 376 433 34,000  Level FlightAware ADS-B
Mon 07:29:48 PM 42.4520 -91.6710 285° West 379 436 34,000  Level FlightAware ADS-B
Mon 07:30:27 PM 42.4696 -91.7654 284° West 381 438 34,000  Level FlightAware ADS-B
Mon 07:31:23 PM 42.4930 -91.8910 284° West 382 440 34,000  Level FlightAware ADS-B
Mon 07:32:01 PM 42.5090 -91.9780 284° West 382 440 34,000  Level FlightAware ADS-B
Mon 07:32:32 PM 42.5230 -92.0520 284° West 382 440 34,000  Level FlightAware ADS-B
Mon 07:33:31 PM 42.5480 -92.1880 284° West 380 437 34,000  Level FlightAware ADS-B
Mon 07:33:56 PM 42.5580 -92.2470 283° West 379 436 34,000  Level FlightAware ADS-B
Mon 07:35:01 PM 42.5860 -92.3980 284° West 379 436 34,000  Level FlightAware ADS-B
Mon 07:35:45 PM 42.6040 -92.4980 284° West 377 434 34,000  Level FlightAware ADS-B
Mon 07:36:33 PM 42.6240 -92.6060 284° West 375 432 34,000  Level FlightAware ADS-B
Mon 07:36:58 PM 42.6340 -92.6650 283° West 375 432 34,000  Level FlightAware ADS-B
Mon 07:37:44 PM 42.6530 -92.7700 284° West 374 430 34,000  Level FlightAware ADS-B
Mon 07:38:21 PM 42.6670 -92.8530 283° West 375 432 34,000  Level FlightAware ADS-B
Mon 07:39:18 PM 42.6900 -92.9840 283° West 375 432 34,000  Level FlightAware ADS-B
Mon 07:40:11 PM 42.7120 -93.1070 284° West 376 433 34,000  Level FlightAware ADS-B
Mon 07:40:33 PM 42.7200 -93.1560 283° West 375 432 34,000  Level FlightAware ADS-B
Mon 07:41:31 PM 42.7440 -93.2910 284° West 374 430 34,000  Level FlightAware ADS-B
Mon 07:42:22 PM 42.7630 -93.4050 283° West 371 427 34,000  Level FlightAware ADS-B
Mon 07:43:13 PM 42.7830 -93.5210 283° West 366 421 34,000  Level FlightAware ADS-B
Mon 07:43:35 PM 42.7910 -93.5690 283° West 365 420 34,000  Level FlightAware ADS-B
Mon 07:44:16 PM 42.8070 -93.6620 283° West 363 418 34,000  Level FlightAware ADS-B
Mon 07:45:06 PM 42.8260 -93.7730 283° West 361 415 34,000  Level FlightAware ADS-B
Mon 07:45:51 PM 42.8420 -93.8720 282° West 360 414 34,000  Level FlightAware ADS-B
Mon 07:46:36 PM 42.8590 -93.9730 283° West 360 414 34,000  Level FlightAware ADS-B
Mon 07:47:33 PM 42.8790 -94.0970 282° West 359 413 34,000  Level FlightAware ADS-B
Mon 07:48:25 PM 42.8990 -94.2140 283° West 362 417 34,000  Level FlightAware ADS-B
Mon 07:49:16 PM 42.9170 -94.3260 282° West 364 419 34,000  Level FlightAware ADS-B
Mon 07:50:06 PM 42.9350 -94.4380 282° West 365 420 34,000  Level FlightAware ADS-B
Mon 07:50:52 PM 42.9510 -94.5400 282° West 365 420 34,000  Level FlightAware ADS-B
Mon 07:51:41 PM 42.9690 -94.6510 283° West 365 420 34,000  Level FlightAware ADS-B
Mon 07:52:29 PM 42.9860 -94.7600 282° West 366 421 34,000  Level FlightAware ADS-B
Mon 07:53:13 PM 43.0010 -94.8550 282° West 367 422 34,000  Level FlightAware ADS-B
Mon 07:54:05 PM 43.0200 -94.9760 282° West 366 421 34,000  Level FlightAware ADS-B
Mon 07:54:53 PM 43.0370 -95.0850 282° West 366 421 34,000  Level FlightAware ADS-B
Mon 07:55:45 PM 43.0550 -95.2010 282° West 364 419 34,000  Level FlightAware ADS-B
Mon 07:56:41 PM 43.0750 -95.3290 282° West 363 418 34,000  Level FlightAware ADS-B
Mon 07:56:55 PM 43.0797 -95.3602 282° West 364 419 34,000  Level FlightAware ADS-B
Mon 07:57:33 PM 43.0930 -95.4440 282° West 362 417 34,000  Level FlightAware ADS-B
Mon 07:58:06 PM 43.1041 -95.5195 281° West 362 417 34,000  Level FlightAware ADS-B
Mon 07:59:25 PM 43.1292 -95.6867 282° West 361 415 34,000  Level FlightAware ADS-B
Mon 08:00:06 PM 43.1430 -95.7830 281° West 360 414 34,000  Level FlightAware ADS-B
Mon 08:00:53 PM 43.1590 -95.8910 282° West 358 412 34,000  Level FlightAware ADS-B
Mon 08:01:45 PM 43.1760 -96.0060 281° West 356 410 34,000  Level FlightAware ADS-B
Mon 08:02:33 PM 43.1920 -96.1130 282° West 355 409 34,000  Level FlightAware ADS-B
Mon 08:03:17 PM 43.2060 -96.2100 281° West 354 407 34,000  Level FlightAware ADS-B
Mon 08:03:41 PM 43.2130 -96.2600 281° West 354 407 34,000  Level FlightAware ADS-B
Mon 08:04:32 PM 43.2290 -96.3710 281° West 353 406 34,000  Level FlightAware ADS-B
Mon 08:05:23 PM 43.2460 -96.4860 282° West 354 407 34,000  Level FlightAware ADS-B
Mon 08:06:15 PM 43.2620 -96.5990 281° West 355 409 34,000  Level FlightAware ADS-B
Mon 08:07:13 PM 43.2800 -96.7300 281° West 355 409 34,000  Level FlightAware ADS-B
Mon 08:08:03 PM 43.2950 -96.8390 281° West 356 410 34,000  Level FlightAware ADS-B
Mon 08:08:55 PM 43.3110 -96.9550 281° West 357 411 34,000  Level FlightAware ADS-B
Mon 08:09:49 PM 43.3280 -97.0760 281° West 358 412 34,000  Level FlightAware ADS-B
Mon 08:10:19 PM 43.3360 -97.1380 280° West 360 414 34,000  Level FlightAware ADS-B
Mon 08:11:07 PM 43.3510 -97.2510 280° West 359 413 34,000  Level FlightAware ADS-B
Mon 08:12:20 PM 43.3730 -97.4120 281° West 357 411 34,000  Level FlightAware ADS-B
Mon 08:12:58 PM 43.3840 -97.4940 280° West 356 410 34,000  Level FlightAware ADS-B
Mon 08:13:53 PM 43.4000 -97.6190 280° West 356 410 34,000  Level FlightAware ADS-B
Mon 08:14:42 PM 43.4150 -97.7280 281° West 355 409 34,000  Level FlightAware ADS-B
Mon 08:15:41 PM 43.4320 -97.8590 280° West 353 406 34,000  Level FlightAware ADS-B
Mon 08:16:31 PM 43.4460 -97.9690 280° West 352 405 34,000  Level FlightAware ADS-B
Mon 08:17:32 PM 43.4630 -98.1030 280° West 350 403 34,000  Level FlightAware ADS-B
Mon 08:18:33 PM 43.4800 -98.2350 280° West 349 402 34,000  Level FlightAware ADS-B
Mon 08:19:29 PM 43.4950 -98.3590 280° West 348 400 34,000  Level FlightAware ADS-B
Mon 08:19:58 PM 43.5030 -98.4200 280° West 347 399 34,000  Level FlightAware ADS-B
Mon 08:20:56 PM 43.5190 -98.5490 280° West 346 398 34,000  Level FlightAware ADS-B
Mon 08:21:39 PM 43.5282 -98.6281 279° West 347 399 34,000  Level FlightAware ADS-B
Mon 08:22:19 PM 43.5400 -98.7270 279° West 347 399 34,000  Level FlightAware ADS-B
Mon 08:22:55 PM 43.5500 -98.8070 280° West 347 399 34,000  Level FlightAware ADS-B
Mon 08:23:56 PM 43.5660 -98.9390 280° West 346 398 34,000  Level FlightAware ADS-B
Mon 08:24:48 PM 43.5790 -99.0490 279° West 343 395 34,000  Level FlightAware ADS-B
Mon 08:25:40 PM 43.5920 -99.1640 279° West 342 394 34,000  Level FlightAware ADS-B
Mon 08:26:11 PM 43.6000 -99.2300 280° West 341 392 34,000  Level FlightAware ADS-B
Mon 08:26:47 PM 43.6090 -99.3080 279° West 341 392 34,000  Level FlightAware ADS-B
Mon 08:27:53 PM 43.6250 -99.4480 279° West 342 394 34,000  Level FlightAware ADS-B
Mon 08:28:48 PM 43.6390 -99.5660 279° West 344 396 34,000  Level FlightAware ADS-B
Mon 08:29:42 PM 43.6520 -99.6860 279° West 345 397 34,000  Level FlightAware ADS-B
Mon 08:30:39 PM 43.6660 -99.8090 279° West 344 396 34,000  Level FlightAware ADS-B
Mon 08:31:31 PM 43.6790 -99.9220 279° West 344 396 34,000  Level FlightAware ADS-B
Mon 08:32:25 PM 43.6900 -100.0290 278° West 344 396 34,000  Level FlightAware ADS-B
Mon 08:33:15 PM 43.6990 -100.1220 278° West 344 396 34,000  Level FlightAware ADS-B
Mon 08:34:03 PM 43.7080 -100.2110 278° West 344 396 34,000  Level FlightAware ADS-B
Mon 08:35:03 PM 43.7200 -100.3220 279° West 344 396 34,000  Level FlightAware ADS-B
Mon 08:35:51 PM 43.7290 -100.4110 278° West 344 396 34,000  Level FlightAware ADS-B
Mon 08:36:54 PM 43.7410 -100.5280 278° West 344 396 34,000  Level FlightAware ADS-B
Mon 08:37:31 PM 43.7470 -100.5960 277° West 344 396 34,000  Level FlightAware ADS-B
Mon 08:38:31 PM 43.7590 -100.7080 278° West 344 396 34,000  Level FlightAware ADS-B
Mon 08:39:07 PM 43.7660 -100.7740 278° West 344 396 34,000  Level FlightAware ADS-B
Mon 08:39:32 PM 43.7700 -100.8210 277° West 344 396 34,000  Level FlightAware ADS-B
Mon 08:40:32 PM 43.7820 -100.9320 279° West 344 396 34,000  Level FlightAware ADS-B
Mon 08:41:08 PM 43.7880 -100.9990 277° West 344 396 34,000  Level FlightAware ADS-B
Mon 08:41:33 PM 43.7930 -101.0450 279° West 344 396 34,000  Level FlightAware ADS-B
Mon 08:41:47 PM 43.7960 -101.0710 279° West 344 396 34,000  Level FlightAware ADS-B
Mon 08:42:29 PM 43.8292 -101.3717 279° West 360 414 34,000  Level Salt Lake Center
Mon 08:43:06 PM 43.8356 -101.4481 277° West 361 415 34,000  Level Denver Center
Mon 08:43:56 PM 43.8458 -101.5592 277° West 360 414 34,000  Level Minneapolis Center
Mon 08:44:58 PM 43.8600 -101.7239 277° West 360 414 34,000  Level Minneapolis Center
Mon 08:46:00 PM 43.8739 -101.8603 278° West 359 413 34,000  Level Minneapolis Center
Mon 08:47:02 PM 43.8858 -101.9947 277° West 356 410 34,000  Level Minneapolis Center
Mon 08:48:04 PM 43.8978 -102.1286 277° West 354 407 34,000  Level Minneapolis Center
Mon 08:49:06 PM 43.9108 -102.2642 278° West 353 406 34,000  Level Minneapolis Center
Mon 08:50:08 PM 43.9228 -102.3989 277° West 353 406 34,000  Level Minneapolis Center
Mon 08:51:19 PM 43.9378 -102.5611 277° West 354 407 34,000  Level Denver Center
Mon 08:52:21 PM 43.9494 -102.6981 277° West 356 410 34,000  Level Denver Center
Mon 08:53:22 PM 43.9625 -102.8481 277° West 359 413 34,000  Level Denver Center
Mon 08:54:24 PM 43.9750 -103.0042 276° West 363 418 34,000 290 Level Denver Center
Mon 08:55:26 PM 43.9797 -103.1383 273° West 365 420 34,600 780 Climbing Denver Center
Mon 08:56:27 PM 43.9822 -103.2967 271° West 367 422 35,600 829 Climbing Denver Center
Mon 08:57:29 PM 43.9836 -103.4367 271° West 376 433 36,300 780 Climbing Denver Center
Mon 08:58:30 PM 43.9875 -103.6047 272° West 390 449 37,200 829 Climbing Denver Center
Mon 08:59:32 PM 43.9894 -103.7506 271° West 394 453 38,000 387 Climbing Denver Center
Mon 09:00:34 PM 43.9919 -103.8961 271° West 396 456 38,000  Level Denver Center
Mon 09:01:35 PM 43.9942 -104.0669 271° West 398 458 38,000  Level Denver Center
Mon 09:02:37 PM 43.9953 -104.2131 271° West 397 457 38,000  Level Denver Center
Mon 09:03:39 PM 43.9978 -104.3842 271° West 399 459 38,000  Level Denver Center
Mon 09:04:40 PM 43.9992 -104.5322 271° West 399 459 38,000  Level Denver Center
Mon 09:05:42 PM 44.0006 -104.7053 271° West 403 464 38,000  Level Denver Center
Mon 09:06:44 PM 44.0017 -104.8536 271° West 403 464 38,000  Level Denver Center
Mon 09:07:45 PM 44.0028 -105.0261 271° West 402 463 38,000  Level Denver Center
Mon 09:08:47 PM 44.0039 -105.1753 271° West 404 465 38,000  Level Denver Center
Mon 09:09:49 PM 44.0042 -105.3261 270° West 407 468 38,000  Level Denver Center
Mon 09:15:03 PM 44.0010 -106.1710 270° West 406 467 38,000  Level FlightAware ADS-B
Mon 09:15:55 PM 44.0000 -106.2860 269° West 406 467 38,000  Level FlightAware ADS-B
Mon 09:16:44 PM 43.9990 -106.3950 269° West 406 467 38,000  Level FlightAware ADS-B
Mon 09:17:20 PM 43.9980 -106.4750 269° West 406 467 38,000  Level FlightAware ADS-B
Mon 09:18:20 PM 43.9960 -106.6080 269° West 406 467 38,000  Level FlightAware ADS-B
Mon 09:18:44 PM 43.9950 -106.6610 269° West 406 467 38,000  Level FlightAware ADS-B
Mon 09:19:56 PM 43.9930 -106.8210 269° West 406 467 38,000  Level FlightAware ADS-B
Mon 09:20:20 PM 43.9930 -106.8740 270° West 406 467 38,000  Level FlightAware ADS-B
Mon 09:20:56 PM 43.9920 -106.9540 269° West 406 467 38,000  Level FlightAware ADS-B
Mon 09:22:21 PM 43.7660 -107.2660 225° Southwest 412 474 38,000  Level FlightAware ADS-B
Mon 09:22:42 PM 43.7510 -107.3180 248° West 411 473 38,000  Level FlightAware ADS-B
Mon 09:23:45 PM 43.7120 -107.4490 248° West 411 473 38,000  Level FlightAware ADS-B
Mon 09:24:39 PM 43.6690 -107.6020 249° West 410 472 38,000  Level FlightAware ADS-B
Mon 09:25:29 PM 43.6370 -107.7100 248° West 411 473 38,000  Level FlightAware ADS-B
Mon 09:26:05 PM 43.6150 -107.7850 248° West 411 473 38,000  Level FlightAware ADS-B
Mon 09:26:53 PM 43.5860 -107.8840 248° West 411 473 38,000  Level FlightAware ADS-B
Mon 09:27:41 PM 43.5570 -107.9830 248° West 411 473 38,000  Level FlightAware ADS-B
Mon 09:28:30 PM 43.5270 -108.0850 248° West 411 473 38,000  Level FlightAware ADS-B
Mon 09:29:30 PM 43.4910 -108.2090 248° West 411 473 38,000  Level FlightAware ADS-B
Mon 09:30:06 PM 43.4690 -108.2830 248° West 411 473 38,000  Level FlightAware ADS-B
Mon 09:30:53 PM 43.4410 -108.3800 248° West 411 473 38,000  Level FlightAware ADS-B
Mon 09:31:17 PM 43.4260 -108.4290 247° West 411 473 38,000  Level FlightAware ADS-B
Mon 09:32:17 PM 43.3900 -108.5530 248° West 411 473 38,000  Level FlightAware ADS-B
Mon 09:33:05 PM 43.3610 -108.6520 248° West 411 473 38,000  Level FlightAware ADS-B
Mon 09:34:05 PM 43.3250 -108.7760 248° West 411 473 38,000  Level FlightAware ADS-B
Mon 09:34:53 PM 43.2950 -108.8750 247° West 411 473 38,000  Level FlightAware ADS-B
Mon 09:35:46 PM 43.2014 -109.2161 247° West 410 472 38,000  Level Salt Lake Center
Mon 09:36:48 PM 43.1589 -109.3622 248° West 414 476 38,000  Level Salt Lake Center
Mon 09:37:49 PM 43.1156 -109.5086 248° West 416 479 38,000  Level Salt Lake Center
Mon 09:38:50 PM 43.0736 -109.6544 249° West 414 476 38,000  Level Salt Lake Center
Mon 09:39:52 PM 43.0303 -109.8003 248° West 414 476 38,000  Level Salt Lake Center
Mon 09:40:53 PM 42.9886 -109.9428 248° West 415 478 38,000  Level Salt Lake Center
Mon 09:41:54 PM 42.9386 -110.1069 247° West 417 480 38,000  Level Salt Lake Center
Mon 09:42:56 PM 42.8961 -110.2469 248° West 418 481 38,000  Level Salt Lake Center
Mon 09:48:33 PM 42.6360 -111.0910 248° West 423 487 38,000  Level FlightAware ADS-B
Mon 09:49:29 PM 42.5930 -111.2270 247° West 425 489 38,000  Level FlightAware ADS-B
Mon 09:50:21 PM 42.5530 -111.3560 247° West 425 489 38,000  Level FlightAware ADS-B
Mon 09:51:21 PM 42.5060 -111.5030 247° West 427 491 38,000  Level FlightAware ADS-B
Mon 09:51:57 PM 42.4786 -111.5900 247° West 427 491 38,000  Level FlightAware ADS-B
Mon 09:52:17 PM 42.4624 -111.6413 247° West 425 489 38,000  Level FlightAware ADS-B
Mon 09:52:30 PM 42.4523 -111.6730 247° West 428 493 38,000  Level FlightAware ADS-B
Mon 09:52:48 PM 42.4385 -111.7157 246° West 426 490 38,000  Level FlightAware ADS-B
Mon 09:53:30 PM 42.4049 -111.8200 246° West 430 495 38,000  Level FlightAware ADS-B
Mon 09:54:01 PM 42.3809 -111.8950 247° West 432 497 38,000  Level FlightAware ADS-B
Mon 09:54:31 PM 42.3566 -111.9710 247° West 431 496 38,000  Level FlightAware ADS-B
Mon 09:54:34 PM 42.3541 -111.9782 245° Southwest 428 493 38,000  Level FlightAware ADS-B
Mon 09:55:02 PM 42.3322 -112.0460 246° West 432 497 38,000  Level FlightAware ADS-B
Mon 09:55:12 PM 42.3240 -112.0712 246° West 429 494 38,000  Level FlightAware ADS-B
Mon 09:55:34 PM 42.3062 -112.1260 246° West 433 498 38,000  Level FlightAware ADS-B
Mon 09:55:42 PM 42.2996 -112.1460 246° West 429 494 38,000  Level FlightAware ADS-B
Mon 09:56:05 PM 42.2815 -112.2020 246° West 434 499 38,000  Level FlightAware ADS-B
Mon 09:56:15 PM 42.2736 -112.2263 246° West 429 494 38,000  Level FlightAware ADS-B
Mon 09:56:40 PM 42.2531 -112.2900 247° West 430 495 38,000  Level FlightAware ADS-B
Mon 09:56:45 PM 42.2496 -112.3002 245° Southwest 427 491 38,000  Level FlightAware ADS-B
Mon 09:57:15 PM 42.2257 -112.3732 246° West 425 489 38,000  Level FlightAware ADS-B
Mon 09:57:16 PM 42.2246 -112.3770 248° West 429 494 38,000  Level FlightAware ADS-B
Mon 09:57:45 PM 42.2013 -112.4474 246° West 430 495 38,000  Level FlightAware ADS-B
Mon 09:58:10 PM 42.1809 -112.5090 246° West 431 496 38,000  Level FlightAware ADS-B
Mon 09:58:20 PM 42.1729 -112.5323 245° Southwest 431 496 38,000  Level FlightAware ADS-B
Mon 09:58:41 PM 42.1551 -112.5840 245° Southwest 432 497 38,000  Level FlightAware ADS-B
Mon 09:58:55 PM 42.1433 -112.6180 245° Southwest 433 498 38,000  Level FlightAware ADS-B
Mon 09:59:23 PM 42.1202 -112.6860 245° Southwest 434 499 38,000  Level FlightAware ADS-B
Mon 09:59:34 PM 42.1112 -112.7125 246° West 434 499 38,000  Level FlightAware ADS-B
Mon 10:00:10 PM 42.0809 -112.8020 245° Southwest 435 501 38,000  Level FlightAware ADS-B
Mon 10:00:16 PM 42.0765 -112.8155 246° West 434 499 38,000  Level FlightAware ADS-B
Mon 10:00:41 PM 42.0557 -112.8760 245° Southwest 436 502 38,000  Level FlightAware ADS-B
Mon 10:00:56 PM 42.0429 -112.9140 246° West 435 501 38,000  Level FlightAware ADS-B
Mon 10:01:23 PM 42.0199 -112.9810 245° Southwest 440 506 38,000  Level FlightAware ADS-B
Mon 10:01:27 PM 42.0164 -112.9906 244° Southwest 440 506 38,000  Level FlightAware ADS-B
Mon 10:01:39 PM 42.0059 -113.0211 245° Southwest 437 503 38,000  Level FlightAware ADS-B
Mon 10:01:58 PM 41.9895 -113.0690 245° Southwest 440 506 38,000  Level FlightAware ADS-B
Mon 10:02:29 PM 41.9637 -113.1442 245° Southwest 439 505 38,000  Level FlightAware ADS-B
Mon 10:02:35 PM 41.9587 -113.1590 246° West 443 510 38,000  Level FlightAware ADS-B
Mon 10:03:02 PM 41.9346 -113.2284 245° Southwest 441 507 38,000  Level FlightAware ADS-B
Mon 10:03:16 PM 41.9230 -113.2620 245° Southwest 443 510 38,000  Level FlightAware ADS-B
Mon 10:03:34 PM 41.9078 -113.3054 245° Southwest 436 502 38,000  Level FlightAware ADS-B
Mon 10:03:56 PM 41.8889 -113.3600 245° Southwest 436 502 38,000  Level FlightAware ADS-B
Mon 10:04:16 PM 41.8722 -113.4078 245° Southwest 430 495 38,000  Level FlightAware ADS-B
Mon 10:04:40 PM 41.8515 -113.4670 245° Southwest 435 501 38,000  Level FlightAware ADS-B
Mon 10:04:46 PM 41.8466 -113.4813 245° Southwest 431 496 38,000  Level FlightAware ADS-B
Mon 10:05:13 PM 41.8235 -113.5470 245° Southwest 431 496 38,000  Level FlightAware ADS-B
Mon 10:05:32 PM 41.8083 -113.5913 245° Southwest 432 497 38,000  Level FlightAware ADS-B
Mon 10:05:44 PM 41.7978 -113.6210 245° Southwest 432 497 38,000  Level FlightAware ADS-B
Mon 10:06:03 PM 41.7814 -113.6677 245° Southwest 434 499 38,000  Level FlightAware ADS-B
Mon 10:06:14 PM 41.7718 -113.6950 245° Southwest 435 501 38,000  Level FlightAware ADS-B
Mon 10:06:34 PM 41.7553 -113.7419 245° Southwest 436 502 38,000  Level FlightAware ADS-B
Mon 10:06:49 PM 41.7416 -113.7800 244° Southwest 437 503 38,000  Level FlightAware ADS-B
Mon 10:07:07 PM 41.7261 -113.8241 245° Southwest 435 501 38,000  Level FlightAware ADS-B
Mon 10:07:19 PM 41.7155 -113.8540 245° Southwest 438 504 38,000  Level FlightAware ADS-B
Mon 10:07:38 PM 41.6989 -113.9007 245° Southwest 435 501 38,000  Level FlightAware ADS-B
Mon 10:07:50 PM 41.6891 -113.9280 244° Southwest 438 504 38,000  Level FlightAware ADS-B
Mon 10:08:10 PM 41.6715 -113.9780 245° Southwest 436 502 38,000  Level FlightAware ADS-B
Mon 10:08:20 PM 41.6630 -114.0020 245° Southwest 439 505 38,000  Level FlightAware ADS-B
Mon 10:08:41 PM 41.6453 -114.0518 245° Southwest 439 505 38,000  Level FlightAware ADS-B
Mon 10:08:53 PM 41.6341 -114.0830 244° Southwest 439 505 38,000  Level FlightAware ADS-B
Mon 10:09:00 PM 41.6284 -114.0993 245° Southwest 436 502 38,000  Level FlightAware ADS-B
Mon 10:09:23 PM 41.6075 -114.1570 244° Southwest 438 504 38,000  Level FlightAware ADS-B
Mon 10:09:34 PM 41.5983 -114.1828 245° Southwest 434 499 38,000  Level FlightAware ADS-B
Mon 10:09:54 PM 41.5811 -114.2310 244° Southwest 437 503 38,000  Level FlightAware ADS-B
Mon 10:10:04 PM 41.5723 -114.2556 244° Southwest 433 498 38,000  Level FlightAware ADS-B
Mon 10:10:25 PM 41.5541 -114.3060 244° Southwest 435 501 38,000  Level FlightAware ADS-B
Mon 10:10:37 PM 41.5438 -114.3353 245° Southwest 432 497 38,000  Level FlightAware ADS-B
Mon 10:10:55 PM 41.5279 -114.3790 244° Southwest 434 499 38,000  Level FlightAware ADS-B
Mon 10:11:07 PM 41.5175 -114.4082 245° Southwest 429 494 38,000  Level FlightAware ADS-B
Mon 10:11:25 PM 41.5018 -114.4520 244° Southwest 432 497 38,000  Level FlightAware ADS-B
Mon 10:11:49 PM 41.4808 -114.5097 244° Southwest 431 496 38,000  Level FlightAware ADS-B
Mon 10:11:59 PM 41.4726 -114.5320 244° Southwest 436 502 38,000  Level FlightAware ADS-B
Mon 10:12:20 PM 41.4539 -114.5841 244° Southwest 437 503 38,000  Level FlightAware ADS-B
Mon 10:12:29 PM 41.4462 -114.6050 244° Southwest 436 502 38,000  Level FlightAware ADS-B
Mon 10:13:14 PM 41.4065 -114.7134 244° Southwest 437 503 38,000  Level FlightAware ADS-B
Mon 10:13:45 PM 41.3791 -114.7883 244° Southwest 431 496 38,000  Level FlightAware ADS-B
Mon 10:14:34 PM 41.3360 -114.9067 244° Southwest 429 494 38,000  Level FlightAware ADS-B
Mon 10:14:42 PM 41.3294 -114.9250 244° Southwest 432 497 38,000  Level FlightAware ADS-B
Mon 10:15:14 PM 41.3017 -115.0000 244° Southwest 434 499 38,000  Level FlightAware ADS-B
Mon 10:15:47 PM 41.2715 -115.0810 244° Southwest 435 501 38,000  Level FlightAware ADS-B
Mon 10:16:18 PM 41.2447 -115.1530 244° Southwest 435 501 38,000  Level FlightAware ADS-B
Mon 10:16:48 PM 41.2179 -115.2260 244° Southwest 434 499 38,000  Level FlightAware ADS-B
Mon 10:17:14 PM 41.1949 -115.2876 244° Southwest 436 502 38,000  Level FlightAware ADS-B
Mon 10:17:18 PM 41.1912 -115.2970 243° Southwest 436 502 38,000  Level FlightAware ADS-B
Mon 10:17:55 PM 41.1588 -115.3852 244° Southwest 433 498 38,000  Level FlightAware ADS-B
Mon 10:18:31 PM 41.1275 -115.4742 245° Southwest 436 502 38,000  Level FlightAware ADS-B
Mon 10:19:11 PM 41.0944 -115.5687 245° Southwest 432 497 38,000  Level FlightAware ADS-B
Mon 10:20:28 PM 41.0390 -115.7260 245° Southwest 435 501 38,000  Level FlightAware ADS-B
Mon 10:21:04 PM 40.9966 -115.8410 244° Southwest 433 498 38,000  Level FlightAware ADS-B
Mon 10:22:15 PM 40.9352 -116.0110 244° Southwest 433 498 38,000  Level FlightAware ADS-B
Mon 10:22:52 PM 40.9350 -116.0220 269° West 435 501 38,000  Level FlightAware ADS-B
Mon 10:23:40 PM 40.9000 -116.1200 245° Southwest 435 501 38,000  Level FlightAware ADS-B
Mon 10:24:28 PM 40.8650 -116.2190 245° Southwest 435 501 38,000  Level FlightAware ADS-B
Mon 10:25:30 PM 40.8210 -116.3460 245° Southwest 435 501 38,000  Level FlightAware ADS-B
Mon 10:26:06 PM 40.7940 -116.4200 244° Southwest 435 501 38,000  Level FlightAware ADS-B
Mon 10:26:55 PM 40.7590 -116.5200 245° Southwest 435 501 38,000  Level FlightAware ADS-B
Mon 10:27:32 PM 40.7320 -116.5960 245° Southwest 435 501 38,000  Level FlightAware ADS-B
Mon 10:28:21 PM 40.6970 -116.6960 245° Southwest 435 501 38,000  Level FlightAware ADS-B
Mon 10:29:09 PM 40.6620 -116.7940 245° Southwest 435 501 38,000  Level FlightAware ADS-B
Mon 10:34:46 PM 40.3300 -117.8030 247° West 430 495 38,000  Level FlightAware ADS-B
Mon 10:35:45 PM 40.2920 -117.9480 251° West 431 496 38,000  Level FlightAware ADS-B
Mon 10:36:34 PM 40.2600 -118.0710 251° West 431 496 38,000 -941 Level FlightAware ADS-B
Mon 10:37:27 PM 40.2250 -118.2010 251° West 438 504 36,400 -1,807 Descending FlightAware ADS-B
Mon 10:37:57 PM 40.2050 -118.2770 251° West 428 493 35,500 -2,488 Descending FlightAware ADS-B
Mon 10:38:49 PM 40.1720 -118.4010 251° West 433 498 33,000 -3,186 Descending FlightAware ADS-B
Mon 10:39:50 PM 40.1320 -118.5520 251° West 434 499 29,500 -3,340 Descending FlightAware ADS-B
Mon 10:40:26 PM 40.1130 -118.6410 254° West 422 486 27,600 -3,191 Descending FlightAware ADS-B
Mon 10:40:37 PM 40.1080 -118.6680 256° West 421 484 27,000 -2,949 Descending FlightAware ADS-B
Mon 10:41:25 PM 40.0860 -118.7840 256° West 416 479 24,700 -2,681 Descending FlightAware ADS-B
Mon 10:42:11 PM 40.0650 -118.8910 256° West 398 458 22,800 -2,455 Descending FlightAware ADS-B
Mon 10:42:53 PM 40.0450 -118.9910 255° West 383 441 21,100 -2,581 Descending FlightAware ADS-B
Mon 10:43:44 PM 40.0240 -119.1020 256° West 379 436 18,800 -2,571 Descending FlightAware ADS-B
Mon 10:43:56 PM 40.0180 -119.1300 254° West 376 433 18,400 -276 Descending FlightAware ADS-B
Mon 10:45:11 PM 39.9890 -119.2700 255° West 376 433 18,400  Level FlightAware ADS-B
Mon 10:45:47 PM 39.9760 -119.3370 256° West 376 433 18,400  Level FlightAware ADS-B
Mon 10:46:11 PM 39.9660 -119.3820 254° West 376 433 18,400 -5,060 Level FlightAware ADS-B
Mon 10:47:10 PM 39.8860 -119.5110 231° Southwest 346 398 11,400 -4,569 Descending FlightAware ADS-B
Mon 10:48:00 PM 39.8490 -119.6020 242° Southwest 312 359 10,100 -1,391 Descending FlightAware ADS-B
Mon 10:48:19 PM 39.8370 -119.6330 243° Southwest 299 344 9,800 -857 Descending FlightAware ADS-B
Mon 10:48:42 PM 39.8230 -119.6700 244° Southwest 284 327 9,500 -750 Descending FlightAware ADS-B
Mon 10:49:07 PM 39.8090 -119.7060 243° Southwest 272 313 9,200 -873 Descending FlightAware ADS-B
Mon 10:49:37 PM 39.7790 -119.7350 217° Southwest 264 304 8,700 -984 Descending FlightAware ADS-B
Mon 10:50:08 PM 39.7480 -119.7580 210° Southwest 245 282 8,200 -915 Descending FlightAware ADS-B
Mon 10:50:36 PM 39.7180 -119.7690 196° South 230 265 7,800 -490 Descending FlightAware ADS-B
Mon 10:50:57 PM 39.6960 -119.7680 178° South 221 254 7,800 -490 Level FlightAware ADS-B
Mon 10:51:25 PM 39.6690 -119.7690 182° South 210 242 7,400 -923 Descending FlightAware ADS-B
Mon 10:51:49 PM 39.6460 -119.7690 180° South 193 222 7,000 -1,154 Descending FlightAware ADS-B
Mon 10:52:17 PM 39.6220 -119.7690 180° South 175 201 6,400 -1,038 Descending FlightAware ADS-B
Mon 10:52:41 PM 39.6040 -119.7690 180° South 163 188 6,100 -875 Descending FlightAware ADS-B
Mon 10:53:05 PM 39.5860 -119.7690 180° South 161 185 5,700 -828 Descending FlightAware ADS-B
Mon 10:53:10 PM 39.5820 -119.7690 180° South 161 185 5,700 -878 Level FlightAware ADS-B
Mon 10:53:46 PM 39.5540 -119.7690 180° South 162 186 5,100 -1,000 Descending FlightAware ADS-B
Mon 10:54:16 PM 39.5320 -119.7690 180° South 164 189 4,600 -923 Descending FlightAware ADS-B
Mon 10:54:25 PM 39.5260 -119.7690 180° South 163 188 4,500 -774 Descending FlightAware ADS-B
Mon 10:54:47 PM 39.5100 -119.7690 180° South 161 185 4,200 -818 Descending FlightAware ADS-B

Login

Don't have an account? Register now (free) for customized features, flight alerts, and more!